Time;durP1;ratioP1;P1;durP2;ratioP2;P2;SDS_P1;SDS_P2;PMS_P1;PMS_P2;Temp;Humidity;BMP_temperature;BMP_pressure;BME280_temperature;BME280_humidity;BME280_pressure;Samples;Min_cycle;Max_cycle;Signal;HPM_P1;HPM_P2
2022/06/19 00:00:09;;;;;;;12.77;3.55;;;;;;;;;;4955109;28;20240;-81
2022/06/19 00:02:35;;;;;;;16.10;4.15;;;;;;;;;;4967879;28;20213;-81
2022/06/19 00:05:00;;;;;;;15.68;4.07;;;;;;;;;;4955493;28;20209;-81
2022/06/19 00:07:26;;;;;;;11.02;3.85;;;;;;;;;;4954023;28;20218;-81
2022/06/19 00:09:51;;;;;;;16.75;5.43;;;;;;;;;;4953015;28;20217;-81
2022/06/19 00:12:17;;;;;;;14.65;4.00;;;;;;;;;;4957222;28;20260;-81
2022/06/19 00:14:43;;;;;;;7.35;3.67;;;;;;;;;;4977000;28;20184;-81
2022/06/19 00:17:09;;;;;;;10.43;3.60;;;;;;;;;;4970907;28;21284;-81
2022/06/19 00:19:35;;;;;;;12.70;3.90;;;;;;;;;;4956941;28;20173;-81
2022/06/19 00:22:00;;;;;;;10.75;4.18;;;;;;;;;;4966908;28;20200;-81
2022/06/19 00:24:25;;;;;;;9.52;3.72;;;;;;;;;;4954818;28;20192;-81
2022/06/19 00:26:50;;;;;;;12.50;3.80;;;;;;;;;;4972051;28;20228;-81
2022/06/19 00:29:16;;;;;;;11.13;3.17;;;;;;;;;;4952124;28;20174;-81
2022/06/19 00:31:41;;;;;;;9.75;3.40;;;;;;;;;;4967524;28;20193;-81
2022/06/19 00:34:06;;;;;;;14.55;5.00;;;;;;;;;;4955094;28;20185;-80
2022/06/19 00:36:32;;;;;;;9.98;4.20;;;;;;;;;;4968421;28;20243;-81
2022/06/19 00:38:57;;;;;;;11.75;3.70;;;;;;;;;;4955450;28;20319;-80
2022/06/19 00:41:23;;;;;;;10.90;3.47;;;;;;;;;;4972472;28;20187;-81
2022/06/19 00:43:52;;;;;;;15.48;3.70;;;;;;;;;;4967928;28;20181;-81
2022/06/19 00:46:36;;;;;;;14.77;4.35;;;;;;;;;;4952584;28;20190;-81
2022/06/19 00:49:02;;;;;;;9.32;3.88;;;;;;;;;;4954291;28;20185;-80
2022/06/19 00:51:27;;;;;;;11.45;4.30;;;;;;;;;;4958329;28;20192;-81
2022/06/19 00:53:53;;;;;;;11.80;3.83;;;;;;;;;;4971520;28;20181;-81
2022/06/19 00:56:19;;;;;;;9.65;3.65;;;;;;;;;;4967033;28;20178;-81
2022/06/19 00:58:45;;;;;;;7.35;3.53;;;;;;;;;;4970317;28;20279;-81
2022/06/19 01:01:16;;;;;;;15.23;3.60;;;;;;;;;;4957475;28;20181;-81
2022/06/19 01:03:47;;;;;;;9.85;3.78;;;;;;;;;;4954483;28;20221;-81
2022/06/19 01:06:13;;;;;;;10.00;4.07;;;;;;;;;;4965830;28;20240;-81
2022/06/19 01:08:38;;;;;;;9.35;3.78;;;;;;;;;;4957709;28;20178;-81
2022/06/19 01:11:04;;;;;;;12.02;4.03;;;;;;;;;;4950515;28;20189;-81
2022/06/19 01:13:30;;;;;;;12.20;3.60;;;;;;;;;;4960696;28;20295;-81
2022/06/19 01:15:55;;;;;;;13.13;4.82;;;;;;;;;;4968943;28;20174;-81
2022/06/19 01:18:21;;;;;;;9.38;3.38;;;;;;;;;;4969137;28;20198;-81
2022/06/19 01:20:48;;;;;;;8.98;3.80;;;;;;;;;;4964628;28;20250;-81
2022/06/19 01:23:13;;;;;;;11.13;3.67;;;;;;;;;;4954091;28;20173;-81
2022/06/19 01:25:40;;;;;;;12.90;3.88;;;;;;;;;;4963004;28;20239;-81
2022/06/19 01:30:55;;;;;;;10.85;3.50;;;;;;;;;;4953343;28;20196;-81
2022/06/19 01:33:23;;;;;;;8.88;3.67;;;;;;;;;;4968079;28;20209;-81
2022/06/19 01:35:49;;;;;;;13.30;3.53;;;;;;;;;;4962650;28;20180;-81
2022/06/19 01:38:16;;;;;;;8.07;3.35;;;;;;;;;;4965848;28;20375;-81
2022/06/19 01:40:42;;;;;;;14.70;4.22;;;;;;;;;;4968341;28;20208;-81
2022/06/19 01:43:08;;;;;;;11.27;3.53;;;;;;;;;;4957042;28;20285;-81
2022/06/19 01:45:34;;;;;;;8.35;4.00;;;;;;;;;;4968788;28;20320;-81
2022/06/19 01:48:00;;;;;;;12.07;4.45;;;;;;;;;;4962637;28;20197;-81
2022/06/19 01:50:27;;;;;;;15.82;3.95;;;;;;;;;;4947536;28;20252;-80
2022/06/19 01:52:56;;;;;;;15.13;4.13;;;;;;;;;;4969354;28;20617;-81
2022/06/19 01:55:22;;;;;;;10.80;3.70;;;;;;;;;;4968526;28;20190;-81
2022/06/19 01:57:52;;;;;;;12.10;3.78;;;;;;;;;;4967246;28;20217;-81
2022/06/19 02:00:20;;;;;;;15.18;3.60;;;;;;;;;;4951642;28;21549;-80
2022/06/19 02:02:46;;;;;;;15.02;5.10;;;;;;;;;;4970699;28;20272;-81
2022/06/19 02:05:12;;;;;;;11.57;4.75;;;;;;;;;;4950885;28;20251;-80
2022/06/19 02:07:37;;;;;;;11.32;3.75;;;;;;;;;;4970406;28;20257;-81
2022/06/19 02:10:03;;;;;;;9.55;4.05;;;;;;;;;;4955208;28;20185;-80
2022/06/19 02:12:29;;;;;;;11.10;3.80;;;;;;;;;;4963020;28;20204;-81
2022/06/19 02:14:54;;;;;;;15.75;3.30;;;;;;;;;;4980626;28;20177;-81
2022/06/19 02:17:22;;;;;;;11.60;3.92;;;;;;;;;;4970786;28;20240;-81
2022/06/19 02:19:47;;;;;;;11.63;4.15;;;;;;;;;;4954650;28;20182;-81
2022/06/19 02:22:13;;;;;;;11.77;4.30;;;;;;;;;;4969937;28;20196;-81
2022/06/19 02:24:42;;;;;;;10.02;3.78;;;;;;;;;;4972117;28;20181;-81
2022/06/19 02:27:08;;;;;;;13.77;3.72;;;;;;;;;;4953988;28;20189;-80
2022/06/19 02:29:34;;;;;;;12.18;3.85;;;;;;;;;;4970260;28;20208;-81
2022/06/19 02:31:59;;;;;;;14.23;4.75;;;;;;;;;;4970790;28;20206;-81
2022/06/19 02:34:26;;;;;;;12.70;4.45;;;;;;;;;;4978716;28;20224;-81
2022/06/19 02:36:56;;;;;;;9.82;3.78;;;;;;;;;;4952913;28;20201;-81
2022/06/19 02:39:31;;;;;;;9.38;3.63;;;;;;;;;;4969907;28;20236;-81
2022/06/19 02:41:59;;;;;;;12.18;3.92;;;;;;;;;;4954494;28;20188;-81
2022/06/19 02:44:33;;;;;;;11.75;4.13;;;;;;;;;;4961217;28;20181;-81
2022/06/19 02:46:58;;;;;;;11.88;4.22;;;;;;;;;;4953079;28;20221;-81
2022/06/19 02:49:24;;;;;;;10.35;3.75;;;;;;;;;;4954773;28;20259;-81
2022/06/19 02:51:49;;;;;;;9.75;3.70;;;;;;;;;;4953074;28;20241;-81
2022/06/19 02:54:15;;;;;;;12.65;3.80;;;;;;;;;;4952058;28;20178;-81
2022/06/19 02:56:40;;;;;;;12.10;4.55;;;;;;;;;;4975264;28;20240;-81
2022/06/19 02:59:05;;;;;;;13.05;4.20;;;;;;;;;;4969271;28;20293;-80
2022/06/19 03:01:30;;;;;;;13.50;5.00;;;;;;;;;;4954005;28;20187;-81
2022/06/19 03:03:55;;;;;;;10.35;3.78;;;;;;;;;;4958547;28;20248;-80
2022/06/19 03:06:21;;;;;;;10.93;4.13;;;;;;;;;;4963237;28;20193;-80
2022/06/19 03:08:46;;;;;;;14.15;4.68;;;;;;;;;;4972267;28;20177;-80
2022/06/19 03:11:11;;;;;;;9.85;4.65;;;;;;;;;;4970334;28;20177;-80
2022/06/19 03:13:36;;;;;;;16.48;5.38;;;;;;;;;;4974375;28;20206;-81
2022/06/19 03:16:07;;;;;;;15.02;5.07;;;;;;;;;;4954472;28;20186;-80
2022/06/19 03:18:32;;;;;;;13.35;5.38;;;;;;;;;;4970179;28;20188;-80
2022/06/19 03:20:57;;;;;;;16.45;5.10;;;;;;;;;;4954796;28;20255;-80
2022/06/19 03:23:23;;;;;;;8.45;4.50;;;;;;;;;;4962915;28;20177;-80
2022/06/19 03:25:48;;;;;;;11.65;5.00;;;;;;;;;;4955013;28;20279;-80
2022/06/19 03:28:13;;;;;;;12.93;5.05;;;;;;;;;;4968458;28;20192;-80
2022/06/19 03:30:38;;;;;;;13.50;5.43;;;;;;;;;;4957720;28;20209;-80
2022/06/19 03:33:04;;;;;;;15.77;5.63;;;;;;;;;;4953319;28;20198;-80
2022/06/19 03:35:29;;;;;;;16.17;5.25;;;;;;;;;;4972539;28;20185;-80
2022/06/19 03:37:54;;;;;;;18.25;5.22;;;;;;;;;;4955637;28;20239;-80
2022/06/19 03:40:19;;;;;;;9.73;4.82;;;;;;;;;;4958215;28;20183;-80
2022/06/19 03:42:45;;;;;;;9.57;5.68;;;;;;;;;;4975611;28;20178;-80
2022/06/19 03:45:10;;;;;;;13.63;6.18;;;;;;;;;;4957732;28;20185;-80
2022/06/19 03:47:35;;;;;;;12.10;5.13;;;;;;;;;;4965227;28;20178;-80
2022/06/19 03:50:01;;;;;;;12.77;5.75;;;;;;;;;;4953408;28;20178;-80
2022/06/19 03:52:26;;;;;;;13.25;6.28;;;;;;;;;;4955347;28;20208;-80
2022/06/19 03:54:52;;;;;;;10.02;5.28;;;;;;;;;;4954326;28;20181;-80
2022/06/19 03:57:17;;;;;;;10.80;6.50;;;;;;;;;;4950543;28;20181;-80
2022/06/19 03:59:42;;;;;;;13.23;5.80;;;;;;;;;;4953400;28;20185;-81
2022/06/19 04:02:09;;;;;;;15.13;6.88;;;;;;;;;;4966837;28;20197;-80
2022/06/19 04:04:35;;;;;;;12.73;6.68;;;;;;;;;;4968684;28;20189;-80
2022/06/19 04:07:00;;;;;;;12.20;5.88;;;;;;;;;;4965252;28;20189;-81
2022/06/19 04:09:25;;;;;;;12.50;6.50;;;;;;;;;;4974159;28;20178;-81
2022/06/19 04:11:50;;;;;;;9.32;6.15;;;;;;;;;;4973449;28;20245;-80
2022/06/19 04:14:16;;;;;;;14.18;6.55;;;;;;;;;;4958261;28;20174;-81
2022/06/19 04:16:42;;;;;;;15.50;7.05;;;;;;;;;;4969389;28;20268;-81
2022/06/19 04:19:08;;;;;;;13.02;7.13;;;;;;;;;;4968849;28;20182;-80
2022/06/19 04:21:38;;;;;;;11.05;6.90;;;;;;;;;;4967767;28;20189;-80
2022/06/19 04:24:04;;;;;;;12.73;7.65;;;;;;;;;;4957013;28;20241;-80
2022/06/19 04:26:31;;;;;;;18.52;7.15;;;;;;;;;;4951976;28;20185;-81
2022/06/19 04:28:57;;;;;;;12.63;6.45;;;;;;;;;;4951286;28;20224;-80
2022/06/19 04:31:22;;;;;;;10.35;6.45;;;;;;;;;;4969324;28;20186;-81
2022/06/19 04:33:47;;;;;;;16.52;7.55;;;;;;;;;;4957399;28;20209;-81
2022/06/19 04:36:14;;;;;;;12.43;6.07;;;;;;;;;;4959414;28;20174;-81
2022/06/19 04:38:41;;;;;;;11.85;6.90;;;;;;;;;;4963209;28;20336;-81
2022/06/19 04:41:12;;;;;;;12.45;6.60;;;;;;;;;;4962865;28;20223;-81
2022/06/19 04:43:37;;;;;;;11.95;7.40;;;;;;;;;;4974586;28;20208;-81
2022/06/19 04:46:05;;;;;;;10.15;7.07;;;;;;;;;;4960757;28;20180;-81
2022/06/19 04:48:31;;;;;;;13.35;6.97;;;;;;;;;;4963630;28;20183;-81
2022/06/19 04:50:56;;;;;;;12.55;7.47;;;;;;;;;;4952786;28;20181;-81
2022/06/19 04:53:21;;;;;;;10.73;6.55;;;;;;;;;;4966991;28;20204;-81
2022/06/19 04:55:46;;;;;;;15.68;7.03;;;;;;;;;;4957949;28;20177;-81
2022/06/19 04:58:11;;;;;;;13.38;6.82;;;;;;;;;;4964514;28;20251;-81
2022/06/19 05:00:37;;;;;;;9.85;6.57;;;;;;;;;;4978367;28;20184;-81
2022/06/19 05:03:02;;;;;;;13.75;7.72;;;;;;;;;;4962200;28;20235;-81
2022/06/19 05:05:27;;;;;;;15.40;7.28;;;;;;;;;;4976488;28;20188;-81
2022/06/19 05:07:52;;;;;;;17.08;6.47;;;;;;;;;;4972352;28;20184;-81
2022/06/19 05:10:18;;;;;;;12.38;7.68;;;;;;;;;;4954075;28;20196;-81
2022/06/19 05:12:43;;;;;;;16.35;7.22;;;;;;;;;;4970712;28;20280;-81
2022/06/19 05:15:09;;;;;;;13.10;7.28;;;;;;;;;;4958989;28;20288;-81
2022/06/19 05:17:35;;;;;;;11.60;7.03;;;;;;;;;;4979827;28;20187;-81
2022/06/19 05:20:01;;;;;;;10.50;7.07;;;;;;;;;;4953581;28;20181;-81
2022/06/19 05:22:26;;;;;;;10.23;6.82;;;;;;;;;;4973930;28;20284;-81
2022/06/19 05:24:51;;;;;;;8.25;7.20;;;;;;;;;;4961596;28;20192;-81
2022/06/19 05:27:17;;;;;;;12.85;6.82;;;;;;;;;;4957692;28;20181;-81
2022/06/19 05:29:42;;;;;;;13.82;7.32;;;;;;;;;;4973377;28;20212;-81
2022/06/19 05:32:07;;;;;;;13.73;7.75;;;;;;;;;;4954394;28;20205;-81
2022/06/19 05:34:34;;;;;;;14.80;7.22;;;;;;;;;;4976396;28;20271;-81
2022/06/19 05:36:59;;;;;;;12.73;6.75;;;;;;;;;;4969879;28;20207;-81
2022/06/19 05:39:24;;;;;;;13.18;7.60;;;;;;;;;;4959110;28;20225;-81
2022/06/19 05:41:50;;;;;;;16.73;7.75;;;;;;;;;;4964431;28;20275;-81
2022/06/19 05:44:15;;;;;;;13.98;6.68;;;;;;;;;;4958116;28;20271;-81
2022/06/19 05:46:41;;;;;;;9.90;6.45;;;;;;;;;;4979821;28;20192;-81
2022/06/19 05:49:07;;;;;;;13.98;7.68;;;;;;;;;;4960274;28;20188;-81
2022/06/19 05:51:32;;;;;;;14.02;7.47;;;;;;;;;;4977759;28;20180;-81
2022/06/19 05:53:57;;;;;;;12.85;7.28;;;;;;;;;;4982156;28;20219;-81
2022/06/19 05:56:23;;;;;;;15.55;7.68;;;;;;;;;;4957206;28;20189;-81
2022/06/19 05:58:49;;;;;;;11.07;7.18;;;;;;;;;;4965933;28;20200;-81
2022/06/19 06:01:15;;;;;;;10.57;6.55;;;;;;;;;;4960608;28;20173;-81
2022/06/19 06:03:42;;;;;;;11.52;7.20;;;;;;;;;;4957139;28;20204;-81
2022/06/19 06:06:12;;;;;;;10.40;6.82;;;;;;;;;;4964404;28;20179;-81
2022/06/19 06:08:38;;;;;;;11.68;7.03;;;;;;;;;;4977030;28;20204;-81
2022/06/19 06:11:03;;;;;;;11.77;7.65;;;;;;;;;;4974559;28;20219;-82
2022/06/19 06:13:31;;;;;;;18.05;8.57;;;;;;;;;;4956226;28;20217;-81
2022/06/19 06:15:57;;;;;;;10.32;7.35;;;;;;;;;;4959143;28;20181;-81
2022/06/19 06:18:22;;;;;;;10.52;6.85;;;;;;;;;;4961744;28;20179;-82
2022/06/19 06:20:58;;;;;;;16.73;7.82;;;;;;;;;;4974743;28;20177;-82
2022/06/19 06:23:24;;;;;;;12.70;7.25;;;;;;;;;;4976557;28;20176;-82
2022/06/19 06:26:10;;;;;;;15.57;7.70;;;;;;;;;;4956970;28;20191;-81
2022/06/19 06:28:36;;;;;;;10.45;6.82;;;;;;;;;;4962240;28;20340;-82
2022/06/19 06:31:02;;;;;;;13.60;7.97;;;;;;;;;;4956015;28;20445;-81
2022/06/19 06:33:28;;;;;;;12.82;7.18;;;;;;;;;;4960821;28;20212;-81
2022/06/19 06:35:54;;;;;;;13.88;8.02;;;;;;;;;;4975196;28;20264;-81
2022/06/19 06:38:19;;;;;;;11.45;7.15;;;;;;;;;;4973383;28;20283;-81
2022/06/19 06:40:44;;;;;;;14.07;7.65;;;;;;;;;;4957112;28;20177;-80
2022/06/19 06:43:09;;;;;;;14.32;8.52;;;;;;;;;;4955106;28;20248;-82
2022/06/19 06:45:35;;;;;;;9.38;7.63;;;;;;;;;;4971332;28;20263;-81
2022/06/19 06:48:00;;;;;;;12.27;7.88;;;;;;;;;;4970541;28;20188;-83
2022/06/19 06:50:26;;;;;;;14.68;7.57;;;;;;;;;;4952980;28;20212;-82
2022/06/19 06:52:51;;;;;;;12.43;8.20;;;;;;;;;;4972176;28;20208;-81
2022/06/19 06:55:16;;;;;;;11.93;8.18;;;;;;;;;;4974605;28;20209;-81
2022/06/19 06:57:41;;;;;;;13.90;9.30;;;;;;;;;;4964602;28;20180;-81
2022/06/19 07:00:08;;;;;;;12.15;7.95;;;;;;;;;;4964186;28;20212;-81
2022/06/19 07:02:34;;;;;;;10.25;8.15;;;;;;;;;;4975646;28;20275;-81
2022/06/19 07:04:59;;;;;;;12.70;8.57;;;;;;;;;;4963935;28;20268;-81
2022/06/19 07:07:24;;;;;;;12.32;9.82;;;;;;;;;;4960224;28;20234;-81
2022/06/19 07:09:49;;;;;;;15.65;10.15;;;;;;;;;;4975970;28;20220;-82
2022/06/19 07:12:14;;;;;;;13.25;9.23;;;;;;;;;;4974730;28;20259;-82
2022/06/19 07:14:40;;;;;;;11.90;9.75;;;;;;;;;;4977751;28;20188;-82
2022/06/19 07:17:05;;;;;;;15.85;9.75;;;;;;;;;;4962231;28;20179;-81
2022/06/19 07:19:31;;;;;;;16.15;10.02;;;;;;;;;;4973435;28;20177;-82
2022/06/19 07:21:56;;;;;;;13.63;10.80;;;;;;;;;;4955074;28;20205;-83
2022/06/19 07:24:21;;;;;;;13.10;9.05;;;;;;;;;;4976522;28;20256;-82
2022/06/19 07:26:46;;;;;;;13.35;9.90;;;;;;;;;;4963891;28;20330;-82
2022/06/19 07:29:12;;;;;;;13.95;9.30;;;;;;;;;;4979518;28;20168;-81
2022/06/19 07:31:37;;;;;;;12.50;9.80;;;;;;;;;;4978198;28;20172;-81
2022/06/19 07:34:03;;;;;;;15.40;10.10;;;;;;;;;;4960876;28;20205;-82
2022/06/19 07:36:28;;;;;;;14.10;9.18;;;;;;;;;;4974942;28;20200;-82
2022/06/19 07:38:53;;;;;;;14.73;9.30;;;;;;;;;;4953524;28;20225;-82
2022/06/19 07:41:19;;;;;;;14.68;9.60;;;;;;;;;;4955843;28;20284;-81
2022/06/19 07:43:45;;;;;;;15.25;9.38;;;;;;;;;;4966249;28;20185;-82
2022/06/19 07:46:11;;;;;;;16.08;10.43;;;;;;;;;;4953570;28;20189;-81
2022/06/19 07:51:20;;;;;;;11.10;9.65;;;;;;;;;;4958687;28;20192;-82
2022/06/19 07:53:45;;;;;;;14.88;9.48;;;;;;;;;;4954119;28;20201;-83
2022/06/19 07:56:11;;;;;;;10.02;8.18;;;;;;;;;;4955002;28;20181;-83
2022/06/19 07:58:36;;;;;;;10.82;7.88;;;;;;;;;;4974812;28;20279;-81
2022/06/19 08:01:01;;;;;;;10.80;8.75;;;;;;;;;;4956944;28;20184;-82
2022/06/19 08:03:27;;;;;;;10.68;8.68;;;;;;;;;;4953136;28;20193;-82
2022/06/19 08:05:52;;;;;;;10.60;7.72;;;;;;;;;;4957359;28;20181;-81
2022/06/19 08:08:20;;;;;;;14.02;8.30;;;;;;;;;;4958863;28;20187;-81
2022/06/19 08:10:47;;;;;;;11.18;7.00;;;;;;;;;;4967809;28;20180;-81
2022/06/19 08:13:13;;;;;;;9.57;7.68;;;;;;;;;;4955580;28;20205;-83
2022/06/19 08:15:39;;;;;;;11.93;6.85;;;;;;;;;;4968630;28;20170;-83
2022/06/19 08:18:04;;;;;;;10.63;7.15;;;;;;;;;;4955222;28;20189;-81
2022/06/19 08:20:30;;;;;;;13.93;7.43;;;;;;;;;;4952024;28;20177;-82
2022/06/19 08:22:55;;;;;;;16.73;7.70;;;;;;;;;;4956221;28;20245;-83
2022/06/19 08:25:21;;;;;;;11.57;7.35;;;;;;;;;;4953960;28;20195;-82
2022/06/19 08:27:48;;;;;;;8.90;7.20;;;;;;;;;;4953441;28;20260;-83
2022/06/19 08:33:05;;;;;;;10.68;6.30;;;;;;;;;;5024805;23;20271;-80
2022/06/19 08:35:32;;;;;;;16.75;7.05;;;;;;;;;;4989437;28;20187;-80
2022/06/19 08:38:00;;;;;;;12.52;6.47;;;;;;;;;;4971806;28;20280;-80
2022/06/19 08:40:34;;;;;;;9.18;5.88;;;;;;;;;;4983738;28;20248;-80
2022/06/19 08:43:12;;;;;;;11.35;6.47;;;;;;;;;;4974359;28;20206;-80
2022/06/19 08:45:37;;;;;;;6.95;6.25;;;;;;;;;;4975068;28;20223;-81
2022/06/19 08:48:06;;;;;;;12.52;6.72;;;;;;;;;;4981978;28;20196;-80
2022/06/19 08:50:49;;;;;;;12.13;6.45;;;;;;;;;;4981291;28;20181;-81
2022/06/19 08:53:24;;;;;;;10.60;6.80;;;;;;;;;;4986115;28;20205;-81
2022/06/19 08:55:58;;;;;;;14.63;6.35;;;;;;;;;;4966637;28;20186;-80
2022/06/19 08:58:33;;;;;;;11.93;5.80;;;;;;;;;;4982835;28;20481;-81
2022/06/19 09:01:11;;;;;;;9.77;6.55;;;;;;;;;;4974738;28;20175;-80
2022/06/19 09:06:46;;;;;;;10.45;5.82;;;;;;;;;;4973796;28;20215;-81
2022/06/19 09:09:23;;;;;;;12.98;6.18;;;;;;;;;;4988378;28;20482;-80
2022/06/19 09:11:57;;;;;;;10.88;6.15;;;;;;;;;;4958486;28;20177;-81
2022/06/19 09:14:25;;;;;;;9.55;6.55;;;;;;;;;;4980736;28;20265;-81
2022/06/19 09:17:10;;;;;;;8.50;5.80;;;;;;;;;;4984250;28;20208;-81
2022/06/19 09:19:50;;;;;;;9.05;5.75;;;;;;;;;;4987605;28;20177;-81
2022/06/19 09:22:21;;;;;;;8.52;5.43;;;;;;;;;;4967716;28;20259;-81
2022/06/19 09:25:08;;;;;;;10.02;6.00;;;;;;;;;;4972450;28;20189;-81
2022/06/19 09:27:48;;;;;;;11.38;5.97;;;;;;;;;;4981326;28;20251;-81
2022/06/19 09:30:21;;;;;;;11.02;6.85;;;;;;;;;;4984976;28;20207;-81
2022/06/19 09:32:55;;;;;;;7.53;5.45;;;;;;;;;;4988709;28;20224;-81
2022/06/19 09:35:31;;;;;;;8.95;5.30;;;;;;;;;;4969140;28;20204;-81
2022/06/19 09:38:09;;;;;;;10.02;6.20;;;;;;;;;;4983052;28;20231;-81
2022/06/19 09:40:40;;;;;;;8.02;4.78;;;;;;;;;;4968016;28;20181;-82
2022/06/19 09:43:13;;;;;;;10.77;6.05;;;;;;;;;;4983161;28;20191;-81
2022/06/19 09:45:44;;;;;;;9.07;5.40;;;;;;;;;;4978929;28;20315;-81
2022/06/19 09:48:36;;;;;;;8.50;5.72;;;;;;;;;;4967638;28;20185;-81
2022/06/19 09:51:08;;;;;;;10.73;5.45;;;;;;;;;;4969324;28;20184;-81
2022/06/19 09:53:52;;;;;;;15.77;6.60;;;;;;;;;;4970608;28;20204;-81
2022/06/19 09:56:17;;;;;;;8.05;5.82;;;;;;;;;;4988659;28;20219;-81
2022/06/19 09:58:47;;;;;;;8.65;5.28;;;;;;;;;;4964092;28;20266;-81
2022/06/19 10:01:13;;;;;;;10.57;5.43;;;;;;;;;;4975737;28;20183;-81
2022/06/19 10:03:40;;;;;;;7.63;4.93;;;;;;;;;;4968353;28;21439;-81
2022/06/19 10:06:11;;;;;;;12.52;5.25;;;;;;;;;;4984739;28;20189;-82
2022/06/19 10:08:43;;;;;;;13.27;5.35;;;;;;;;;;4967937;28;20188;-81
2022/06/19 10:11:12;;;;;;;6.63;5.22;;;;;;;;;;4968290;28;20271;-82
2022/06/19 10:13:49;;;;;;;11.05;5.88;;;;;;;;;;4984300;28;20193;-81
2022/06/19 10:16:24;;;;;;;9.45;5.43;;;;;;;;;;4988053;28;20218;-81
2022/06/19 10:18:51;;;;;;;11.60;5.28;;;;;;;;;;4983233;28;20195;-81
2022/06/19 10:24:18;;;;;;;8.43;4.80;;;;;;;;;;4970017;28;20279;-81
2022/06/19 10:26:49;;;;;;;13.13;5.78;;;;;;;;;;4985794;28;20231;-82
2022/06/19 10:29:24;;;;;;;8.30;5.55;;;;;;;;;;4968038;28;20184;-82
2022/06/19 10:31:49;;;;;;;8.63;5.53;;;;;;;;;;4986795;28;20228;-81
2022/06/19 10:34:29;;;;;;;7.90;5.95;;;;;;;;;;4984430;28;20177;-81
2022/06/19 10:37:07;;;;;;;8.98;5.57;;;;;;;;;;4989172;28;20212;-82
2022/06/19 10:39:47;;;;;;;10.45;6.07;;;;;;;;;;4987746;28;20176;-81
2022/06/19 10:42:13;;;;;;;10.63;6.13;;;;;;;;;;4988311;28;20185;-82
2022/06/19 10:44:57;;;;;;;13.15;5.72;;;;;;;;;;4987420;28;20191;-82
2022/06/19 10:47:31;;;;;;;8.23;6.25;;;;;;;;;;4987517;28;20270;-81
2022/06/19 10:50:06;;;;;;;11.40;6.93;;;;;;;;;;4981720;28;20187;-82
2022/06/19 10:52:31;;;;;;;8.48;5.93;;;;;;;;;;4971607;28;20207;-81
2022/06/19 10:54:59;;;;;;;9.20;5.93;;;;;;;;;;4984888;28;20185;-81
2022/06/19 10:57:31;;;;;;;9.05;6.00;;;;;;;;;;4986337;28;20418;-81
2022/06/19 10:59:56;;;;;;;11.65;6.55;;;;;;;;;;4974206;28;20213;-82
2022/06/19 11:05:35;;;;;;;7.60;5.38;;;;;;;;;;4972334;28;20184;-79
2022/06/19 11:08:00;;;;;;;9.20;6.30;;;;;;;;;;4970454;28;20197;-79
2022/06/19 11:10:43;;;;;;;8.95;6.72;;;;;;;;;;4970772;28;20207;-81
2022/06/19 11:13:09;;;;;;;10.73;7.15;;;;;;;;;;4988636;28;20200;-82
2022/06/19 11:15:40;;;;;;;8.95;5.57;;;;;;;;;;4986453;28;20203;-81
2022/06/19 11:18:07;;;;;;;10.13;6.05;;;;;;;;;;4973626;28;20196;-81
2022/06/19 11:20:33;;;;;;;15.55;7.65;;;;;;;;;;4969905;28;20184;-81
2022/06/19 11:23:05;;;;;;;9.13;6.78;;;;;;;;;;4972072;28;20185;-82
2022/06/19 11:25:32;;;;;;;10.70;7.28;;;;;;;;;;4976606;28;20256;-81
2022/06/19 11:28:09;;;;;;;7.53;6.38;;;;;;;;;;4974532;28;20223;-82
2022/06/19 11:30:34;;;;;;;11.63;6.40;;;;;;;;;;4968376;28;20269;-82
2022/06/19 11:33:00;;;;;;;7.68;6.30;;;;;;;;;;4969021;28;20225;-83
2022/06/19 11:35:35;;;;;;;10.00;6.93;;;;;;;;;;4973596;28;20200;-84
2022/06/19 11:38:01;;;;;;;9.40;6.20;;;;;;;;;;4980954;28;20299;-84
2022/06/19 11:40:37;;;;;;;8.60;6.18;;;;;;;;;;4972289;28;20268;-83
2022/06/19 11:43:04;;;;;;;10.95;6.53;;;;;;;;;;4971596;28;20199;-83
2022/06/19 11:45:37;;;;;;;7.70;6.07;;;;;;;;;;4978284;28;20213;-83
2022/06/19 11:48:24;;;;;;;11.07;6.70;;;;;;;;;;4974917;28;20221;-84
2022/06/19 11:50:51;;;;;;;8.55;6.45;;;;;;;;;;4984977;28;20192;-85
2022/06/19 11:53:20;;;;;;;13.13;6.30;;;;;;;;;;4985916;28;20216;-83
2022/06/19 11:55:50;;;;;;;6.95;6.30;;;;;;;;;;4986829;28;20177;-84
2022/06/19 11:58:19;;;;;;;11.82;6.03;;;;;;;;;;4969527;28;20183;-83
2022/06/19 12:00:45;;;;;;;12.90;6.13;;;;;;;;;;4964573;28;20208;-82
2022/06/19 12:03:21;;;;;;;10.13;6.10;;;;;;;;;;4967589;28;20187;-81
2022/06/19 12:05:53;;;;;;;8.70;6.25;;;;;;;;;;4993161;28;20187;-82
2022/06/19 12:08:44;;;;;;;7.72;6.18;;;;;;;;;;4971524;28;20184;-83
2022/06/19 12:11:09;;;;;;;11.10;7.15;;;;;;;;;;4974221;28;20196;-84
2022/06/19 12:13:39;;;;;;;8.02;6.35;;;;;;;;;;4976876;28;20209;-83
2022/06/19 12:16:21;;;;;;;8.63;6.00;;;;;;;;;;4979486;28;20173;-84
2022/06/19 12:18:48;;;;;;;7.32;6.05;;;;;;;;;;4973198;28;20183;-84
2022/06/19 12:21:28;;;;;;;10.93;7.82;;;;;;;;;;4969780;28;20240;-84
2022/06/19 12:24:20;;;;;;;7.85;6.22;;;;;;;;;;4974585;28;20185;-84
2022/06/19 12:26:51;;;;;;;11.10;8.95;;;;;;;;;;4968954;28;20260;-82
2022/06/19 12:29:17;;;;;;;9.32;6.70;;;;;;;;;;4970449;28;20189;-82
2022/06/19 12:31:42;;;;;;;8.45;6.80;;;;;;;;;;4974721;28;20228;-83
2022/06/19 12:34:17;;;;;;;8.20;5.95;;;;;;;;;;4974769;28;20205;-84
2022/06/19 12:36:43;;;;;;;9.07;6.75;;;;;;;;;;4987085;28;20200;-82
2022/06/19 12:39:20;;;;;;;9.68;6.65;;;;;;;;;;4972637;28;20211;-82
2022/06/19 12:41:45;;;;;;;9.60;7.18;;;;;;;;;;4988745;28;20177;-84
2022/06/19 12:44:37;;;;;;;9.93;6.72;;;;;;;;;;4989728;28;20238;-84
2022/06/19 12:47:02;;;;;;;6.70;5.90;;;;;;;;;;4959648;28;20350;-83
2022/06/19 12:49:46;;;;;;;11.10;7.40;;;;;;;;;;4986079;28;20264;-84
2022/06/19 12:52:17;;;;;;;8.75;6.22;;;;;;;;;;4991818;28;20465;-83
2022/06/19 12:54:52;;;;;;;9.00;6.47;;;;;;;;;;4969725;28;20177;-83
2022/06/19 12:57:34;;;;;;;10.43;6.55;;;;;;;;;;4987972;28;20175;-82
2022/06/19 13:00:03;;;;;;;9.40;6.72;;;;;;;;;;4981905;28;20169;-84
2022/06/19 13:02:33;;;;;;;8.27;6.68;;;;;;;;;;4983207;28;20227;-83
2022/06/19 13:05:01;;;;;;;7.70;6.35;;;;;;;;;;4989163;28;20186;-83
2022/06/19 13:07:36;;;;;;;15.30;6.50;;;;;;;;;;4967377;28;20265;-83
2022/06/19 13:10:05;;;;;;;10.07;6.50;;;;;;;;;;4968689;28;20181;-83
2022/06/19 13:12:37;;;;;;;7.80;6.40;;;;;;;;;;4971573;28;20196;-81
2022/06/19 13:15:05;;;;;;;11.68;5.63;;;;;;;;;;4969014;28;20184;-81
2022/06/19 13:17:34;;;;;;;8.57;5.38;;;;;;;;;;4983625;28;20191;-81
2022/06/19 13:20:20;;;;;;;6.40;5.13;;;;;;;;;;4978931;28;20179;-82
2022/06/19 13:23:21;;;;;;;5.88;4.70;;;;;;;;;;4987686;28;20188;-80
2022/06/19 13:25:46;;;;;;;9.82;5.75;;;;;;;;;;4968886;28;20181;-81
2022/06/19 13:28:30;;;;;;;7.77;5.37;;;;;;;;;;4964544;28;20193;-81
2022/06/19 13:30:55;;;;;;;6.05;4.75;;;;;;;;;;4971842;28;20418;-81
2022/06/19 13:33:43;;;;;;;6.78;4.93;;;;;;;;;;4950321;28;20256;-81
2022/06/19 13:36:36;;;;;;;11.55;5.32;;;;;;;;;;4951734;28;20191;-81
2022/06/19 13:39:16;;;;;;;10.38;5.30;;;;;;;;;;4952921;28;20197;-81
2022/06/19 13:42:04;;;;;;;8.93;5.00;;;;;;;;;;4949294;28;20184;-80
2022/06/19 13:45:02;;;;;;;9.98;5.00;;;;;;;;;;4945618;28;20193;-81
2022/06/19 13:47:30;;;;;;;8.50;4.97;;;;;;;;;;4921075;28;20220;-80
2022/06/19 13:49:59;;;;;;;10.02;4.78;;;;;;;;;;4953134;28;20217;-82
2022/06/19 13:52:24;;;;;;;10.15;5.13;;;;;;;;;;4946110;28;20254;-81
2022/06/19 13:54:57;;;;;;;9.23;5.17;;;;;;;;;;4950699;28;20184;-80
2022/06/19 13:57:33;;;;;;;11.85;5.20;;;;;;;;;;4947260;28;20428;-82
2022/06/19 14:00:19;;;;;;;12.40;5.63;;;;;;;;;;4955050;28;20185;-84
2022/06/19 14:03:03;;;;;;;8.95;5.10;;;;;;;;;;4950688;28;20190;-83
2022/06/19 14:05:32;;;;;;;10.57;5.18;;;;;;;;;;4949908;28;20178;-82
2022/06/19 14:08:16;;;;;;;10.13;5.45;;;;;;;;;;4932853;29;20187;-84
2022/06/19 14:10:41;;;;;;;8.55;4.85;;;;;;;;;;4947797;28;20423;-83
2022/06/19 14:13:19;;;;;;;8.13;4.75;;;;;;;;;;4951594;29;20208;-84
2022/06/19 14:15:53;;;;;;;9.73;5.35;;;;;;;;;;4933994;29;20189;-84
2022/06/19 14:18:32;;;;;;;9.48;4.90;;;;;;;;;;4947815;29;20183;-83
2022/06/19 14:21:06;;;;;;;11.43;5.43;;;;;;;;;;4934727;29;20174;-84
2022/06/19 14:23:37;;;;;;;14.05;6.10;;;;;;;;;;4932360;29;20280;-84
2022/06/19 14:26:11;;;;;;;12.07;5.32;;;;;;;;;;4933147;29;20238;-84
2022/06/19 14:28:49;;;;;;;10.25;5.43;;;;;;;;;;4931963;29;20186;-84
2022/06/19 14:31:17;;;;;;;8.20;4.70;;;;;;;;;;4940647;28;20178;-85
2022/06/19 14:33:48;;;;;;;14.88;5.05;;;;;;;;;;4981722;28;20216;-83
2022/06/19 14:36:19;;;;;;;8.77;4.38;;;;;;;;;;4966134;28;20185;-84
2022/06/19 14:38:46;;;;;;;13.48;5.18;;;;;;;;;;4990468;28;20285;-84
2022/06/19 14:41:31;;;;;;;11.00;5.20;;;;;;;;;;4976206;28;20180;-84
2022/06/19 14:43:59;;;;;;;10.85;5.28;;;;;;;;;;4975052;28;20201;-81
2022/06/19 14:46:43;;;;;;;9.95;5.35;;;;;;;;;;4993069;28;20184;-80
2022/06/19 14:49:34;;;;;;;10.05;5.25;;;;;;;;;;4989512;28;20190;-80
2022/06/19 14:52:12;;;;;;;7.20;5.18;;;;;;;;;;4970909;28;20213;-82
2022/06/19 14:55:01;;;;;;;14.55;4.95;;;;;;;;;;4988696;28;20195;-82
2022/06/19 14:57:30;;;;;;;13.82;4.93;;;;;;;;;;4965855;28;20207;-81
2022/06/19 15:00:01;;;;;;;11.90;4.85;;;;;;;;;;4973602;28;20204;-81
2022/06/19 15:02:44;;;;;;;14.70;5.22;;;;;;;;;;4966254;28;20200;-82